sensor_id;sensor_type;location;lat;lon;timestamp;P1;durP1;ratioP1;P2;durP2;ratioP2
38427;SDS011;24211;49.980;19.776;2023-06-14T00:01:58;4.18;;;1.83;;
38427;SDS011;24211;49.980;19.776;2023-06-14T00:04:27;4.20;;;1.85;;
38427;SDS011;24211;49.980;19.776;2023-06-14T00:06:55;4.00;;;1.90;;
38427;SDS011;24211;49.980;19.776;2023-06-14T00:09:23;5.30;;;1.98;;
38427;SDS011;24211;49.980;19.776;2023-06-14T00:11:50;4.32;;;1.90;;
38427;SDS011;24211;49.980;19.776;2023-06-14T00:14:18;3.40;;;1.90;;
38427;SDS011;24211;49.980;19.776;2023-06-14T00:16:45;4.28;;;1.98;;
38427;SDS011;24211;49.980;19.776;2023-06-14T00:19:12;5.78;;;2.20;;
38427;SDS011;24211;49.980;19.776;2023-06-14T00:21:39;4.47;;;2.25;;
38427;SDS011;24211;49.980;19.776;2023-06-14T00:24:07;5.75;;;2.50;;
38427;SDS011;24211;49.980;19.776;2023-06-14T00:26:34;4.47;;;2.08;;
38427;SDS011;24211;49.980;19.776;2023-06-14T00:29:02;5.30;;;2.47;;
38427;SDS011;24211;49.980;19.776;2023-06-14T00:31:29;4.10;;;2.13;;
38427;SDS011;24211;49.980;19.776;2023-06-14T00:33:57;5.75;;;2.53;;
38427;SDS011;24211;49.980;19.776;2023-06-14T00:36:24;5.50;;;2.13;;
38427;SDS011;24211;49.980;19.776;2023-06-14T00:38:51;5.47;;;2.53;;
38427;SDS011;24211;49.980;19.776;2023-06-14T00:41:18;4.63;;;2.38;;
38427;SDS011;24211;49.980;19.776;2023-06-14T00:43:46;4.82;;;2.40;;
38427;SDS011;24211;49.980;19.776;2023-06-14T00:46:16;5.40;;;2.40;;
38427;SDS011;24211;49.980;19.776;2023-06-14T00:48:43;5.63;;;2.40;;
38427;SDS011;24211;49.980;19.776;2023-06-14T00:51:11;4.40;;;2.15;;
38427;SDS011;24211;49.980;19.776;2023-06-14T00:53:38;4.88;;;2.20;;
38427;SDS011;24211;49.980;19.776;2023-06-14T00:56:06;5.35;;;2.22;;
38427;SDS011;24211;49.980;19.776;2023-06-14T00:58:33;4.53;;;1.95;;
38427;SDS011;24211;49.980;19.776;2023-06-14T01:01:01;5.25;;;2.28;;
38427;SDS011;24211;49.980;19.776;2023-06-14T01:03:29;5.45;;;2.40;;
38427;SDS011;24211;49.980;19.776;2023-06-14T01:09:00;4.85;;;2.40;;
38427;SDS011;24211;49.980;19.776;2023-06-14T01:11:47;5.03;;;2.50;;
38427;SDS011;24211;49.980;19.776;2023-06-14T01:14:35;4.65;;;2.40;;
38427;SDS011;24211;49.980;19.776;2023-06-14T01:17:04;4.70;;;2.30;;
38427;SDS011;24211;49.980;19.776;2023-06-14T01:19:43;4.95;;;2.40;;
38427;SDS011;24211;49.980;19.776;2023-06-14T01:22:13;4.00;;;1.95;;
38427;SDS011;24211;49.980;19.776;2023-06-14T01:24:41;4.15;;;2.20;;
38427;SDS011;24211;49.980;19.776;2023-06-14T01:27:11;4.50;;;2.38;;
38427;SDS011;24211;49.980;19.776;2023-06-14T01:29:40;5.55;;;2.42;;
38427;SDS011;24211;49.980;19.776;2023-06-14T01:32:14;4.65;;;2.50;;
38427;SDS011;24211;49.980;19.776;2023-06-14T01:34:42;5.53;;;2.42;;
38427;SDS011;24211;49.980;19.776;2023-06-14T01:37:10;4.53;;;2.30;;
38427;SDS011;24211;49.980;19.776;2023-06-14T01:39:40;4.45;;;2.35;;
38427;SDS011;24211;49.980;19.776;2023-06-14T01:42:10;4.63;;;2.20;;
38427;SDS011;24211;49.980;19.776;2023-06-14T01:44:41;5.25;;;2.33;;
38427;SDS011;24211;49.980;19.776;2023-06-14T01:47:10;5.38;;;2.78;;
38427;SDS011;24211;49.980;19.776;2023-06-14T01:49:38;4.32;;;2.33;;
38427;SDS011;24211;49.980;19.776;2023-06-14T01:52:07;4.97;;;2.70;;
38427;SDS011;24211;49.980;19.776;2023-06-14T01:54:36;6.25;;;2.83;;
38427;SDS011;24211;49.980;19.776;2023-06-14T01:57:08;6.55;;;2.63;;
38427;SDS011;24211;49.980;19.776;2023-06-14T01:59:37;5.15;;;2.60;;
38427;SDS011;24211;49.980;19.776;2023-06-14T02:02:04;6.00;;;2.70;;
38427;SDS011;24211;49.980;19.776;2023-06-14T02:04:31;6.78;;;2.72;;
38427;SDS011;24211;49.980;19.776;2023-06-14T02:06:59;5.40;;;2.35;;
38427;SDS011;24211;49.980;19.776;2023-06-14T02:09:26;5.13;;;2.40;;
38427;SDS011;24211;49.980;19.776;2023-06-14T02:11:53;5.55;;;2.60;;
38427;SDS011;24211;49.980;19.776;2023-06-14T02:14:21;5.20;;;2.67;;
38427;SDS011;24211;49.980;19.776;2023-06-14T02:16:48;4.90;;;2.50;;
38427;SDS011;24211;49.980;19.776;2023-06-14T02:19:16;5.55;;;2.58;;
38427;SDS011;24211;49.980;19.776;2023-06-14T02:21:45;5.70;;;2.60;;
38427;SDS011;24211;49.980;19.776;2023-06-14T02:24:13;5.90;;;2.60;;
38427;SDS011;24211;49.980;19.776;2023-06-14T02:26:41;5.63;;;2.78;;
38427;SDS011;24211;49.980;19.776;2023-06-14T02:29:08;6.00;;;2.63;;
38427;SDS011;24211;49.980;19.776;2023-06-14T02:31:38;4.80;;;2.42;;
38427;SDS011;24211;49.980;19.776;2023-06-14T02:34:07;5.78;;;2.50;;
38427;SDS011;24211;49.980;19.776;2023-06-14T02:36:35;5.05;;;2.53;;
38427;SDS011;24211;49.980;19.776;2023-06-14T02:39:08;6.20;;;2.30;;
38427;SDS011;24211;49.980;19.776;2023-06-14T02:41:37;5.35;;;2.33;;
38427;SDS011;24211;49.980;19.776;2023-06-14T02:44:05;5.53;;;2.50;;
38427;SDS011;24211;49.980;19.776;2023-06-14T02:46:33;5.00;;;2.42;;
38427;SDS011;24211;49.980;19.776;2023-06-14T02:49:01;4.75;;;2.45;;
38427;SDS011;24211;49.980;19.776;2023-06-14T02:51:30;5.80;;;2.60;;
38427;SDS011;24211;49.980;19.776;2023-06-14T02:53:57;5.28;;;2.38;;
38427;SDS011;24211;49.980;19.776;2023-06-14T02:56:24;5.97;;;2.67;;
38427;SDS011;24211;49.980;19.776;2023-06-14T02:58:53;7.95;;;2.70;;
38427;SDS011;24211;49.980;19.776;2023-06-14T03:01:20;5.63;;;2.60;;
38427;SDS011;24211;49.980;19.776;2023-06-14T03:03:49;5.78;;;2.42;;
38427;SDS011;24211;49.980;19.776;2023-06-14T03:06:16;5.93;;;2.70;;
38427;SDS011;24211;49.980;19.776;2023-06-14T03:08:46;6.05;;;2.85;;
38427;SDS011;24211;49.980;19.776;2023-06-14T03:11:16;4.80;;;2.63;;
38427;SDS011;24211;49.980;19.776;2023-06-14T03:13:47;5.75;;;3.03;;
38427;SDS011;24211;49.980;19.776;2023-06-14T03:16:15;8.07;;;3.00;;
38427;SDS011;24211;49.980;19.776;2023-06-14T03:18:44;7.60;;;3.13;;
38427;SDS011;24211;49.980;19.776;2023-06-14T03:21:11;5.93;;;3.10;;
38427;SDS011;24211;49.980;19.776;2023-06-14T03:23:43;7.07;;;3.05;;
38427;SDS011;24211;49.980;19.776;2023-06-14T03:26:11;7.15;;;3.00;;
38427;SDS011;24211;49.980;19.776;2023-06-14T03:28:46;6.95;;;2.83;;
38427;SDS011;24211;49.980;19.776;2023-06-14T03:31:15;6.88;;;3.03;;
38427;SDS011;24211;49.980;19.776;2023-06-14T03:33:43;6.97;;;3.13;;
38427;SDS011;24211;49.980;19.776;2023-06-14T03:36:10;6.75;;;3.00;;
38427;SDS011;24211;49.980;19.776;2023-06-14T03:38:37;5.82;;;2.70;;
38427;SDS011;24211;49.980;19.776;2023-06-14T03:41:04;6.63;;;2.95;;
38427;SDS011;24211;49.980;19.776;2023-06-14T03:43:32;5.85;;;2.92;;
38427;SDS011;24211;49.980;19.776;2023-06-14T03:46:00;6.63;;;2.78;;
38427;SDS011;24211;49.980;19.776;2023-06-14T03:48:29;6.43;;;2.90;;
38427;SDS011;24211;49.980;19.776;2023-06-14T03:50:57;5.75;;;2.72;;
38427;SDS011;24211;49.980;19.776;2023-06-14T03:53:27;6.68;;;3.33;;
38427;SDS011;24211;49.980;19.776;2023-06-14T03:55:56;5.78;;;2.80;;
38427;SDS011;24211;49.980;19.776;2023-06-14T03:58:31;6.60;;;2.97;;
38427;SDS011;24211;49.980;19.776;2023-06-14T04:00:58;5.68;;;3.10;;
38427;SDS011;24211;49.980;19.776;2023-06-14T04:03:30;5.97;;;2.80;;
38427;SDS011;24211;49.980;19.776;2023-06-14T07:20:41;6.07;;;3.10;;
38427;SDS011;24211;49.980;19.776;2023-06-14T07:23:13;8.10;;;3.30;;
38427;SDS011;24211;49.980;19.776;2023-06-14T07:25:40;6.20;;;3.50;;
38427;SDS011;24211;49.980;19.776;2023-06-14T07:28:07;5.93;;;3.20;;
38427;SDS011;24211;49.980;19.776;2023-06-14T07:30:35;7.85;;;3.70;;
38427;SDS011;24211;49.980;19.776;2023-06-14T07:33:02;7.35;;;3.60;;
38427;SDS011;24211;49.980;19.776;2023-06-14T07:35:29;7.65;;;4.20;;
38427;SDS011;24211;49.980;19.776;2023-06-14T07:37:56;7.70;;;3.97;;
38427;SDS011;24211;49.980;19.776;2023-06-14T07:40:23;7.60;;;3.42;;
38427;SDS011;24211;49.980;19.776;2023-06-14T07:42:51;7.10;;;3.50;;
38427;SDS011;24211;49.980;19.776;2023-06-14T07:45:20;7.25;;;3.38;;
38427;SDS011;24211;49.980;19.776;2023-06-14T07:47:47;7.25;;;3.90;;
38427;SDS011;24211;49.980;19.776;2023-06-14T07:50:15;7.93;;;3.75;;
38427;SDS011;24211;49.980;19.776;2023-06-14T07:52:42;11.30;;;4.20;;
38427;SDS011;24211;49.980;19.776;2023-06-14T07:55:10;8.52;;;3.90;;
38427;SDS011;24211;49.980;19.776;2023-06-14T07:57:37;6.82;;;3.70;;
38427;SDS011;24211;49.980;19.776;2023-06-14T08:00:05;6.88;;;3.45;;
38427;SDS011;24211;49.980;19.776;2023-06-14T08:02:37;6.30;;;3.15;;
38427;SDS011;24211;49.980;19.776;2023-06-14T08:05:05;8.02;;;3.60;;
38427;SDS011;24211;49.980;19.776;2023-06-14T08:07:32;7.50;;;3.33;;
38427;SDS011;24211;49.980;19.776;2023-06-14T08:09:59;7.78;;;3.42;;
38427;SDS011;24211;49.980;19.776;2023-06-14T08:12:27;8.68;;;3.78;;
38427;SDS011;24211;49.980;19.776;2023-06-14T08:14:54;6.97;;;3.15;;
38427;SDS011;24211;49.980;19.776;2023-06-14T08:17:39;6.20;;;3.15;;
38427;SDS011;24211;49.980;19.776;2023-06-14T08:20:07;6.35;;;3.17;;
38427;SDS011;24211;49.980;19.776;2023-06-14T08:22:35;6.85;;;3.40;;
38427;SDS011;24211;49.980;19.776;2023-06-14T08:25:02;7.38;;;3.50;;
38427;SDS011;24211;49.980;19.776;2023-06-14T08:27:34;6.75;;;3.60;;
38427;SDS011;24211;49.980;19.776;2023-06-14T08:30:02;7.57;;;3.45;;
38427;SDS011;24211;49.980;19.776;2023-06-14T08:32:30;6.35;;;3.28;;
38427;SDS011;24211;49.980;19.776;2023-06-14T08:34:57;7.65;;;3.45;;
38427;SDS011;24211;49.980;19.776;2023-06-14T08:37:31;7.55;;;3.10;;
38427;SDS011;24211;49.980;19.776;2023-06-14T08:40:00;8.13;;;3.70;;
38427;SDS011;24211;49.980;19.776;2023-06-14T08:42:30;7.65;;;4.10;;
38427;SDS011;24211;49.980;19.776;2023-06-14T08:44:59;7.57;;;3.95;;
38427;SDS011;24211;49.980;19.776;2023-06-14T08:47:27;7.78;;;3.75;;
38427;SDS011;24211;49.980;19.776;2023-06-14T08:49:55;7.70;;;3.92;;
38427;SDS011;24211;49.980;19.776;2023-06-14T08:52:25;8.40;;;3.67;;
38427;SDS011;24211;49.980;19.776;2023-06-14T08:55:00;6.80;;;3.58;;
38427;SDS011;24211;49.980;19.776;2023-06-14T08:57:29;6.80;;;3.50;;
38427;SDS011;24211;49.980;19.776;2023-06-14T08:59:57;7.97;;;4.20;;
38427;SDS011;24211;49.980;19.776;2023-06-14T09:02:28;6.97;;;3.58;;
38427;SDS011;24211;49.980;19.776;2023-06-14T09:04:55;7.85;;;3.75;;
38427;SDS011;24211;49.980;19.776;2023-06-14T09:07:26;7.97;;;3.85;;
38427;SDS011;24211;49.980;19.776;2023-06-14T09:10:07;7.30;;;3.53;;
38427;SDS011;24211;49.980;19.776;2023-06-14T09:12:39;8.10;;;3.83;;
38427;SDS011;24211;49.980;19.776;2023-06-14T09:15:07;10.07;;;4.13;;
38427;SDS011;24211;49.980;19.776;2023-06-14T09:17:35;7.97;;;4.13;;
38427;SDS011;24211;49.980;19.776;2023-06-14T09:20:03;9.38;;;4.50;;
38427;SDS011;24211;49.980;19.776;2023-06-14T09:22:33;8.68;;;3.88;;
38427;SDS011;24211;49.980;19.776;2023-06-14T09:25:00;7.55;;;3.90;;
38427;SDS011;24211;49.980;19.776;2023-06-14T09:27:28;7.22;;;3.78;;
38427;SDS011;24211;49.980;19.776;2023-06-14T09:29:56;5.90;;;3.20;;
38427;SDS011;24211;49.980;19.776;2023-06-14T09:32:24;6.10;;;3.40;;
38427;SDS011;24211;49.980;19.776;2023-06-14T09:34:52;7.00;;;3.33;;
38427;SDS011;24211;49.980;19.776;2023-06-14T09:37:26;5.43;;;3.17;;
38427;SDS011;24211;49.980;19.776;2023-06-14T09:39:58;5.80;;;3.00;;
38427;SDS011;24211;49.980;19.776;2023-06-14T09:42:26;5.07;;;2.85;;
38427;SDS011;24211;49.980;19.776;2023-06-14T09:44:55;5.15;;;2.45;;
38427;SDS011;24211;49.980;19.776;2023-06-14T09:47:23;4.88;;;2.55;;
38427;SDS011;24211;49.980;19.776;2023-06-14T09:49:52;5.07;;;2.47;;
38427;SDS011;24211;49.980;19.776;2023-06-14T09:52:22;5.90;;;2.60;;
38427;SDS011;24211;49.980;19.776;2023-06-14T09:54:50;3.92;;;2.20;;
38427;SDS011;24211;49.980;19.776;2023-06-14T09:57:21;4.28;;;2.25;;
38427;SDS011;24211;49.980;19.776;2023-06-14T09:59:52;3.90;;;2.10;;
38427;SDS011;24211;49.980;19.776;2023-06-14T10:02:38;5.32;;;2.20;;
38427;SDS011;24211;49.980;19.776;2023-06-14T10:05:10;4.50;;;2.00;;
38427;SDS011;24211;49.980;19.776;2023-06-14T10:07:52;4.30;;;2.00;;
38427;SDS011;24211;49.980;19.776;2023-06-14T10:10:28;3.05;;;1.80;;
38427;SDS011;24211;49.980;19.776;2023-06-14T10:12:56;2.95;;;1.52;;
38427;SDS011;24211;49.980;19.776;2023-06-14T10:15:28;3.40;;;1.60;;
38427;SDS011;24211;49.980;19.776;2023-06-14T10:18:11;3.72;;;1.60;;
38427;SDS011;24211;49.980;19.776;2023-06-14T10:24:01;3.30;;;1.60;;
38427;SDS011;24211;49.980;19.776;2023-06-14T10:26:34;2.63;;;1.40;;
38427;SDS011;24211;49.980;19.776;2023-06-14T10:29:08;3.00;;;1.80;;
38427;SDS011;24211;49.980;19.776;2023-06-14T10:37:05;3.13;;;1.58;;
38427;SDS011;24211;49.980;19.776;2023-06-14T10:39:43;5.18;;;2.63;;
38427;SDS011;24211;49.980;19.776;2023-06-14T10:42:13;3.47;;;2.08;;
38427;SDS011;24211;49.980;19.776;2023-06-14T10:44:50;4.00;;;2.40;;
38427;SDS011;24211;49.980;19.776;2023-06-14T10:47:32;5.28;;;2.50;;
38427;SDS011;24211;49.980;19.776;2023-06-14T10:50:05;5.15;;;2.88;;
38427;SDS011;24211;49.980;19.776;2023-06-14T10:52:43;3.92;;;2.08;;
38427;SDS011;24211;49.980;19.776;2023-06-14T10:55:16;4.13;;;2.08;;
38427;SDS011;24211;49.980;19.776;2023-06-14T10:57:47;4.82;;;2.30;;
38427;SDS011;24211;49.980;19.776;2023-06-14T11:00:20;5.32;;;2.22;;
38427;SDS011;24211;49.980;19.776;2023-06-14T11:06:17;6.35;;;2.47;;
38427;SDS011;24211;49.980;19.776;2023-06-14T11:09:07;4.80;;;2.10;;
38427;SDS011;24211;49.980;19.776;2023-06-14T11:12:05;5.20;;;2.88;;
38427;SDS011;24211;49.980;19.776;2023-06-14T11:14:38;5.25;;;2.55;;
38427;SDS011;24211;49.980;19.776;2023-06-14T11:17:06;4.10;;;2.28;;
38427;SDS011;24211;49.980;19.776;2023-06-14T11:19:33;5.03;;;2.70;;
38427;SDS011;24211;49.980;19.776;2023-06-14T11:22:01;4.18;;;2.20;;
38427;SDS011;24211;49.980;19.776;2023-06-14T11:24:28;4.22;;;2.05;;
38427;SDS011;24211;49.980;19.776;2023-06-14T11:26:56;4.18;;;2.05;;
38427;SDS011;24211;49.980;19.776;2023-06-14T11:29:24;3.97;;;1.85;;
38427;SDS011;24211;49.980;19.776;2023-06-14T11:31:51;4.18;;;2.08;;
38427;SDS011;24211;49.980;19.776;2023-06-14T11:34:18;3.92;;;2.30;;
38427;SDS011;24211;49.980;19.776;2023-06-14T11:36:46;3.30;;;1.90;;
38427;SDS011;24211;49.980;19.776;2023-06-14T11:39:14;5.20;;;2.90;;
38427;SDS011;24211;49.980;19.776;2023-06-14T11:41:43;4.88;;;2.65;;
38427;SDS011;24211;49.980;19.776;2023-06-14T11:44:12;4.32;;;2.55;;
38427;SDS011;24211;49.980;19.776;2023-06-14T11:46:39;4.20;;;2.72;;
38427;SDS011;24211;49.980;19.776;2023-06-14T11:49:07;4.25;;;2.70;;
38427;SDS011;24211;49.980;19.776;2023-06-14T11:51:36;4.05;;;2.42;;
38427;SDS011;24211;49.980;19.776;2023-06-14T11:54:04;4.75;;;2.60;;
38427;SDS011;24211;49.980;19.776;2023-06-14T11:56:33;5.35;;;2.28;;
38427;SDS011;24211;49.980;19.776;2023-06-14T11:59:02;4.18;;;2.45;;
38427;SDS011;24211;49.980;19.776;2023-06-14T12:01:35;4.80;;;2.20;;
38427;SDS011;24211;49.980;19.776;2023-06-14T12:04:05;4.50;;;2.30;;
38427;SDS011;24211;49.980;19.776;2023-06-14T12:06:33;3.58;;;2.10;;
38427;SDS011;24211;49.980;19.776;2023-06-14T12:09:03;3.72;;;2.03;;
38427;SDS011;24211;49.980;19.776;2023-06-14T12:11:39;3.10;;;1.80;;
38427;SDS011;24211;49.980;19.776;2023-06-14T12:14:08;3.28;;;1.88;;
38427;SDS011;24211;49.980;19.776;2023-06-14T12:16:38;3.00;;;1.83;;
38427;SDS011;24211;49.980;19.776;2023-06-14T12:19:17;3.85;;;2.00;;
38427;SDS011;24211;49.980;19.776;2023-06-14T12:21:47;7.20;;;3.40;;
38427;SDS011;24211;49.980;19.776;2023-06-14T12:24:16;4.32;;;2.42;;
38427;SDS011;24211;49.980;19.776;2023-06-14T12:26:44;4.05;;;2.40;;
38427;SDS011;24211;49.980;19.776;2023-06-14T12:29:12;4.32;;;2.30;;
38427;SDS011;24211;49.980;19.776;2023-06-14T12:31:40;4.13;;;2.10;;
38427;SDS011;24211;49.980;19.776;2023-06-14T12:34:08;3.80;;;2.30;;
38427;SDS011;24211;49.980;19.776;2023-06-14T12:36:35;3.75;;;2.10;;
38427;SDS011;24211;49.980;19.776;2023-06-14T12:39:08;4.18;;;2.25;;
38427;SDS011;24211;49.980;19.776;2023-06-14T12:41:36;4.25;;;2.10;;
38427;SDS011;24211;49.980;19.776;2023-06-14T12:44:03;3.90;;;2.15;;
38427;SDS011;24211;49.980;19.776;2023-06-14T12:46:31;3.65;;;2.20;;
38427;SDS011;24211;49.980;19.776;2023-06-14T12:48:59;3.70;;;1.90;;
38427;SDS011;24211;49.980;19.776;2023-06-14T12:51:27;4.10;;;2.00;;
38427;SDS011;24211;49.980;19.776;2023-06-14T13:00:28;4.55;;;2.20;;
38427;SDS011;24211;49.980;19.776;2023-06-14T13:02:57;3.72;;;2.28;;
38427;SDS011;24211;49.980;19.776;2023-06-14T13:05:24;4.03;;;2.30;;
38427;SDS011;24211;49.980;19.776;2023-06-14T13:07:52;4.70;;;2.03;;
38427;SDS011;24211;49.980;19.776;2023-06-14T13:10:25;4.43;;;2.30;;
38427;SDS011;24211;49.980;19.776;2023-06-14T13:12:53;4.43;;;2.20;;
38427;SDS011;24211;49.980;19.776;2023-06-14T13:15:21;3.67;;;2.00;;
38427;SDS011;24211;49.980;19.776;2023-06-14T13:17:48;3.78;;;2.00;;
38427;SDS011;24211;49.980;19.776;2023-06-14T13:20:15;3.75;;;1.95;;
38427;SDS011;24211;49.980;19.776;2023-06-14T13:22:46;3.67;;;1.90;;
38427;SDS011;24211;49.980;19.776;2023-06-14T13:25:13;3.80;;;1.98;;
38427;SDS011;24211;49.980;19.776;2023-06-14T13:27:41;4.47;;;1.90;;
38427;SDS011;24211;49.980;19.776;2023-06-14T13:30:08;3.75;;;1.73;;
38427;SDS011;24211;49.980;19.776;2023-06-14T13:32:36;3.60;;;1.70;;
38427;SDS011;24211;49.980;19.776;2023-06-14T13:35:03;3.03;;;1.60;;
38427;SDS011;24211;49.980;19.776;2023-06-14T13:37:32;4.15;;;1.58;;
38427;SDS011;24211;49.980;19.776;2023-06-14T13:39:59;3.55;;;1.60;;
38427;SDS011;24211;49.980;19.776;2023-06-14T13:42:27;3.25;;;1.50;;
38427;SDS011;24211;49.980;19.776;2023-06-14T13:44:58;3.83;;;1.90;;
38427;SDS011;24211;49.980;19.776;2023-06-14T13:47:26;4.07;;;2.28;;
38427;SDS011;24211;49.980;19.776;2023-06-14T13:49:54;3.47;;;1.80;;
38427;SDS011;24211;49.980;19.776;2023-06-14T13:52:25;3.42;;;1.83;;
38427;SDS011;24211;49.980;19.776;2023-06-14T13:54:52;3.53;;;1.83;;
38427;SDS011;24211;49.980;19.776;2023-06-14T13:57:23;3.63;;;1.75;;
38427;SDS011;24211;49.980;19.776;2023-06-14T13:59:50;3.75;;;2.10;;
38427;SDS011;24211;49.980;19.776;2023-06-14T14:02:21;4.32;;;2.08;;
38427;SDS011;24211;49.980;19.776;2023-06-14T14:04:48;4.70;;;2.30;;
38427;SDS011;24211;49.980;19.776;2023-06-14T14:07:21;3.88;;;2.00;;
38427;SDS011;24211;49.980;19.776;2023-06-14T14:09:48;3.78;;;2.10;;
38427;SDS011;24211;49.980;19.776;2023-06-14T14:12:16;5.20;;;2.00;;
38427;SDS011;24211;49.980;19.776;2023-06-14T14:14:45;4.50;;;2.00;;
38427;SDS011;24211;49.980;19.776;2023-06-14T14:17:13;4.07;;;2.05;;
38427;SDS011;24211;49.980;19.776;2023-06-14T14:19:40;3.25;;;1.90;;
38427;SDS011;24211;49.980;19.776;2023-06-14T14:22:08;3.78;;;2.08;;
38427;SDS011;24211;49.980;19.776;2023-06-14T14:24:36;3.80;;;2.10;;
38427;SDS011;24211;49.980;19.776;2023-06-14T14:27:05;3.42;;;2.10;;
38427;SDS011;24211;49.980;19.776;2023-06-14T14:29:33;3.35;;;1.70;;
38427;SDS011;24211;49.980;19.776;2023-06-14T14:32:04;2.92;;;1.60;;
38427;SDS011;24211;49.980;19.776;2023-06-14T14:34:31;3.53;;;1.83;;
38427;SDS011;24211;49.980;19.776;2023-06-14T14:37:00;3.92;;;1.73;;
38427;SDS011;24211;49.980;19.776;2023-06-14T14:39:27;3.90;;;2.08;;
38427;SDS011;24211;49.980;19.776;2023-06-14T14:41:55;3.53;;;1.92;;
38427;SDS011;24211;49.980;19.776;2023-06-14T14:44:23;3.58;;;1.70;;
38427;SDS011;24211;49.980;19.776;2023-06-14T14:46:51;3.50;;;2.00;;
38427;SDS011;24211;49.980;19.776;2023-06-14T14:49:20;4.03;;;2.10;;
38427;SDS011;24211;49.980;19.776;2023-06-14T14:51:48;4.03;;;1.70;;
38427;SDS011;24211;49.980;19.776;2023-06-14T14:54:17;4.47;;;1.60;;
38427;SDS011;24211;49.980;19.776;2023-06-14T14:56:44;2.97;;;1.58;;
38427;SDS011;24211;49.980;19.776;2023-06-14T14:59:13;4.80;;;1.73;;
38427;SDS011;24211;49.980;19.776;2023-06-14T15:01:40;2.90;;;1.42;;
38427;SDS011;24211;49.980;19.776;2023-06-14T15:04:07;3.00;;;1.67;;
38427;SDS011;24211;49.980;19.776;2023-06-14T15:06:35;2.90;;;1.50;;
38427;SDS011;24211;49.980;19.776;2023-06-14T15:09:08;2.90;;;1.50;;
38427;SDS011;24211;49.980;19.776;2023-06-14T15:11:37;4.25;;;1.85;;
38427;SDS011;24211;49.980;19.776;2023-06-14T15:14:04;3.40;;;1.70;;
38427;SDS011;24211;49.980;19.776;2023-06-14T15:16:32;3.95;;;1.80;;
38427;SDS011;24211;49.980;19.776;2023-06-14T15:18:59;3.85;;;1.75;;
38427;SDS011;24211;49.980;19.776;2023-06-14T15:21:27;2.78;;;1.60;;
38427;SDS011;24211;49.980;19.776;2023-06-14T15:23:54;3.45;;;1.85;;
38427;SDS011;24211;49.980;19.776;2023-06-14T15:26:21;3.15;;;1.60;;
38427;SDS011;24211;49.980;19.776;2023-06-14T15:28:52;2.67;;;1.70;;
38427;SDS011;24211;49.980;19.776;2023-06-14T15:31:20;4.43;;;1.92;;
38427;SDS011;24211;49.980;19.776;2023-06-14T15:44:46;3.88;;;1.90;;
38427;SDS011;24211;49.980;19.776;2023-06-14T15:47:14;4.65;;;2.05;;
38427;SDS011;24211;49.980;19.776;2023-06-14T15:49:42;3.70;;;2.10;;
38427;SDS011;24211;49.980;19.776;2023-06-14T15:52:10;4.60;;;1.95;;
38427;SDS011;24211;49.980;19.776;2023-06-14T15:54:37;3.53;;;1.95;;
38427;SDS011;24211;49.980;19.776;2023-06-14T15:57:05;5.45;;;2.00;;
38427;SDS011;24211;49.980;19.776;2023-06-14T15:59:33;3.67;;;2.05;;
38427;SDS011;24211;49.980;19.776;2023-06-14T16:02:00;3.75;;;2.08;;
38427;SDS011;24211;49.980;19.776;2023-06-14T16:04:28;3.58;;;1.95;;
38427;SDS011;24211;49.980;19.776;2023-06-14T16:07:00;3.83;;;2.00;;
38427;SDS011;24211;49.980;19.776;2023-06-14T16:09:27;3.03;;;1.75;;
38427;SDS011;24211;49.980;19.776;2023-06-14T16:11:55;3.92;;;1.67;;
38427;SDS011;24211;49.980;19.776;2023-06-14T16:14:23;3.85;;;1.70;;
38427;SDS011;24211;49.980;19.776;2023-06-14T16:16:51;2.70;;;1.40;;
38427;SDS011;24211;49.980;19.776;2023-06-14T16:19:22;2.20;;;1.40;;
38427;SDS011;24211;49.980;19.776;2023-06-14T16:21:51;2.75;;;1.55;;
38427;SDS011;24211;49.980;19.776;2023-06-14T16:24:18;2.83;;;1.30;;
38427;SDS011;24211;49.980;19.776;2023-06-14T16:26:45;3.33;;;1.38;;
38427;SDS011;24211;49.980;19.776;2023-06-14T16:29:15;3.97;;;1.40;;
38427;SDS011;24211;49.980;19.776;2023-06-14T16:31:42;3.10;;;1.33;;
38427;SDS011;24211;49.980;19.776;2023-06-14T16:34:09;2.92;;;1.30;;
38427;SDS011;24211;49.980;19.776;2023-06-14T16:36:38;2.75;;;1.40;;
38427;SDS011;24211;49.980;19.776;2023-06-14T16:39:05;3.45;;;1.65;;
38427;SDS011;24211;49.980;19.776;2023-06-14T16:41:32;2.25;;;1.30;;
38427;SDS011;24211;49.980;19.776;2023-06-14T16:43:59;4.40;;;1.50;;
38427;SDS011;24211;49.980;19.776;2023-06-14T16:46:33;3.38;;;1.52;;
38427;SDS011;24211;49.980;19.776;2023-06-14T16:49:02;2.60;;;1.30;;
38427;SDS011;24211;49.980;19.776;2023-06-14T16:51:31;3.00;;;1.50;;
38427;SDS011;24211;49.980;19.776;2023-06-14T16:53:58;3.03;;;1.45;;
38427;SDS011;24211;49.980;19.776;2023-06-14T16:56:26;2.17;;;1.30;;
38427;SDS011;24211;49.980;19.776;2023-06-14T16:58:54;3.28;;;1.50;;
38427;SDS011;24211;49.980;19.776;2023-06-14T17:01:28;2.65;;;1.50;;
38427;SDS011;24211;49.980;19.776;2023-06-14T17:03:56;3.20;;;1.58;;
38427;SDS011;24211;49.980;19.776;2023-06-14T17:06:23;2.67;;;1.50;;
38427;SDS011;24211;49.980;19.776;2023-06-14T17:08:50;2.72;;;1.38;;
38427;SDS011;24211;49.980;19.776;2023-06-14T17:11:20;2.78;;;1.40;;
38427;SDS011;24211;49.980;19.776;2023-06-14T17:13:51;2.90;;;1.70;;
38427;SDS011;24211;49.980;19.776;2023-06-14T17:16:19;2.92;;;1.40;;
38427;SDS011;24211;49.980;19.776;2023-06-14T17:18:47;2.45;;;1.38;;
38427;SDS011;24211;49.980;19.776;2023-06-14T17:21:14;2.95;;;1.45;;
38427;SDS011;24211;49.980;19.776;2023-06-14T17:23:42;2.92;;;1.50;;
38427;SDS011;24211;49.980;19.776;2023-06-14T17:26:09;3.00;;;1.65;;
38427;SDS011;24211;49.980;19.776;2023-06-14T17:28:37;2.42;;;1.50;;
38427;SDS011;24211;49.980;19.776;2023-06-14T17:31:05;2.33;;;1.30;;
38427;SDS011;24211;49.980;19.776;2023-06-14T17:33:33;3.15;;;1.70;;
38427;SDS011;24211;49.980;19.776;2023-06-14T17:36:00;3.70;;;1.70;;
38427;SDS011;24211;49.980;19.776;2023-06-14T17:38:27;2.63;;;1.30;;
38427;SDS011;24211;49.980;19.776;2023-06-14T17:40:57;3.00;;;1.80;;
38427;SDS011;24211;49.980;19.776;2023-06-14T17:43:29;3.00;;;1.63;;
38427;SDS011;24211;49.980;19.776;2023-06-14T17:45:56;2.95;;;1.55;;
38427;SDS011;24211;49.980;19.776;2023-06-14T17:48:25;3.03;;;1.70;;
38427;SDS011;24211;49.980;19.776;2023-06-14T17:50:53;2.55;;;1.40;;
38427;SDS011;24211;49.980;19.776;2023-06-14T17:53:20;3.45;;;1.70;;
38427;SDS011;24211;49.980;19.776;2023-06-14T17:55:47;3.13;;;1.70;;
38427;SDS011;24211;49.980;19.776;2023-06-14T17:58:14;3.47;;;1.50;;
38427;SDS011;24211;49.980;19.776;2023-06-14T18:00:42;3.90;;;1.90;;
38427;SDS011;24211;49.980;19.776;2023-06-14T18:03:09;3.88;;;1.70;;
38427;SDS011;24211;49.980;19.776;2023-06-14T18:05:42;3.50;;;1.77;;
38427;SDS011;24211;49.980;19.776;2023-06-14T18:08:11;4.40;;;2.08;;
38427;SDS011;24211;49.980;19.776;2023-06-14T18:10:39;3.65;;;1.80;;
38427;SDS011;24211;49.980;19.776;2023-06-14T18:13:07;3.53;;;1.88;;
38427;SDS011;24211;49.980;19.776;2023-06-14T18:15:35;3.55;;;1.63;;
38427;SDS011;24211;49.980;19.776;2023-06-14T18:18:03;3.80;;;2.05;;
38427;SDS011;24211;49.980;19.776;2023-06-14T18:20:31;3.28;;;1.98;;
38427;SDS011;24211;49.980;19.776;2023-06-14T18:22:59;3.30;;;2.00;;
38427;SDS011;24211;49.980;19.776;2023-06-14T18:25:29;3.72;;;2.00;;
38427;SDS011;24211;49.980;19.776;2023-06-14T18:27:56;2.88;;;1.70;;
38427;SDS011;24211;49.980;19.776;2023-06-14T18:30:23;3.35;;;1.80;;
38427;SDS011;24211;49.980;19.776;2023-06-14T18:32:51;4.18;;;1.80;;